createdAt,value
2017-10-24T00:02:05.561Z,15.50
2017-10-24T00:04:33.866Z,16.00
2017-10-24T00:07:02.168Z,15.70
2017-10-24T00:09:30.440Z,15.90
2017-10-24T00:11:59.497Z,15.90
2017-10-24T00:14:29.272Z,15.70
2017-10-24T00:16:58.359Z,15.50
2017-10-24T00:19:27.518Z,15.60
2017-10-24T00:21:55.816Z,15.50
2017-10-24T00:24:24.946Z,15.40
2017-10-24T00:26:53.348Z,15.40
2017-10-24T00:29:21.596Z,15.60
2017-10-24T00:31:53.854Z,15.60
2017-10-24T00:34:22.145Z,15.50
2017-10-24T00:36:50.405Z,15.60
2017-10-24T00:39:19.425Z,15.80
2017-10-24T00:41:47.821Z,15.50
2017-10-24T00:44:16.072Z,15.60
2017-10-24T00:46:44.354Z,15.60
2017-10-24T00:49:12.773Z,15.50
2017-10-24T00:51:41.015Z,15.40
2017-10-24T00:54:09.305Z,15.40
2017-10-24T00:56:37.596Z,15.60
2017-10-24T00:59:05.944Z,15.70
2017-10-24T01:01:35.975Z,15.50
2017-10-24T01:04:04.286Z,15.50
2017-10-24T01:06:33.609Z,15.70
2017-10-24T01:09:02.775Z,15.70
2017-10-24T01:11:31.893Z,15.80
2017-10-24T01:14:00.189Z,15.60
2017-10-24T01:16:29.210Z,15.90
2017-10-24T01:18:58.530Z,15.80
2017-10-24T01:21:26.779Z,16.00
2017-10-24T01:23:55.075Z,15.80
2017-10-24T01:26:24.230Z,15.60
2017-10-24T01:28:54.148Z,15.80
2017-10-24T01:31:22.492Z,15.70
2017-10-24T01:33:50.737Z,15.50
2017-10-24T01:36:19.083Z,15.50
2017-10-24T01:38:48.332Z,15.80
2017-10-24T01:41:16.664Z,15.80
2017-10-24T01:43:45.677Z,15.70
2017-10-24T01:46:13.984Z,15.80
2017-10-24T01:48:42.245Z,15.90
2017-10-24T01:51:10.525Z,15.50
2017-10-24T01:53:38.764Z,15.70
2017-10-24T01:56:07.055Z,15.80
2017-10-24T01:58:36.242Z,15.80
2017-10-24T02:01:04.504Z,15.70
2017-10-24T02:03:32.779Z,15.80
2017-10-24T02:06:01.061Z,15.60
2017-10-24T02:08:30.353Z,15.80
2017-10-24T02:10:58.652Z,15.90
2017-10-24T02:13:26.953Z,16.00
2017-10-24T02:15:56.058Z,15.90
2017-10-24T02:18:24.379Z,15.70
2017-10-24T02:20:52.698Z,15.90
2017-10-24T02:23:21.033Z,15.80
2017-10-24T02:25:50.904Z,15.90
2017-10-24T02:28:19.163Z,15.70
2017-10-24T02:30:47.434Z,15.50
2017-10-24T02:33:15.727Z,15.70
2017-10-24T02:35:43.987Z,15.60
2017-10-24T02:38:13.213Z,15.50
2017-10-24T02:40:41.481Z,15.70
2017-10-24T02:43:09.760Z,15.50
2017-10-24T02:45:38.092Z,15.70
2017-10-24T02:48:06.506Z,15.70
2017-10-24T02:50:34.798Z,15.60
2017-10-24T02:53:04.089Z,15.70
2017-10-24T02:55:32.579Z,15.80
2017-10-24T02:58:01.835Z,15.50
2017-10-24T03:00:31.167Z,15.70
2017-10-24T03:02:59.485Z,15.80
2017-10-24T03:05:27.841Z,15.60
2017-10-24T03:07:56.239Z,15.70
2017-10-24T03:10:24.671Z,15.90
2017-10-24T03:12:52.939Z,15.90
2017-10-24T03:15:21.242Z,15.80
2017-10-24T03:17:49.500Z,15.90
2017-10-24T03:20:17.803Z,15.70
2017-10-24T03:22:46.858Z,15.50
2017-10-24T03:25:15.132Z,15.80
2017-10-24T03:27:43.478Z,15.50
2017-10-24T03:30:12.656Z,15.50
2017-10-24T03:32:43.513Z,15.60
2017-10-24T03:35:12.630Z,15.30
2017-10-24T03:37:41.676Z,15.70
2017-10-24T03:40:09.928Z,15.40
2017-10-24T03:42:38.211Z,15.50
2017-10-24T03:45:06.455Z,15.80
2017-10-24T03:47:35.543Z,15.40
2017-10-24T03:50:05.529Z,15.80
2017-10-24T03:52:33.846Z,15.60
2017-10-24T03:55:02.288Z,15.50
2017-10-24T03:57:32.068Z,15.40
2017-10-24T04:00:00.310Z,15.50
2017-10-24T04:02:28.704Z,15.50
2017-10-24T04:04:57.001Z,15.70
2017-10-24T04:07:25.888Z,15.40
2017-10-24T04:09:54.152Z,15.40
2017-10-24T04:12:22.444Z,15.80
2017-10-24T04:14:51.521Z,15.40
2017-10-24T04:17:19.770Z,15.40
2017-10-24T04:19:48.837Z,15.40
2017-10-24T04:22:18.037Z,15.70
2017-10-24T04:24:47.812Z,15.50
2017-10-24T04:27:16.075Z,15.40
2017-10-24T04:29:44.356Z,15.70
2017-10-24T04:32:12.652Z,15.40
2017-10-24T04:34:40.885Z,15.50
2017-10-24T04:37:09.909Z,15.60
2017-10-24T04:39:38.162Z,15.60
2017-10-24T04:42:07.172Z,15.50
2017-10-24T04:44:35.443Z,15.50
2017-10-24T04:47:03.745Z,15.40
2017-10-24T04:49:31.992Z,15.50
2017-10-24T04:52:00.394Z,15.60
2017-10-24T04:54:28.639Z,15.90
2017-10-24T04:56:56.889Z,15.60
2017-10-24T04:59:25.944Z,15.40
2017-10-24T05:01:55.824Z,15.70
2017-10-24T05:04:25.681Z,15.40
2017-10-24T05:06:53.936Z,15.50
2017-10-24T05:09:22.218Z,15.50
2017-10-24T05:11:51.225Z,15.30
2017-10-24T05:14:19.495Z,15.60
2017-10-24T05:16:47.785Z,15.40
2017-10-24T05:19:16.038Z,15.50
2017-10-24T05:21:44.290Z,15.30
2017-10-24T05:24:14.236Z,15.60
2017-10-24T05:26:42.494Z,15.70
2017-10-24T05:29:11.472Z,15.50
2017-10-24T05:31:40.703Z,15.50
2017-10-24T05:34:08.965Z,15.40
2017-10-24T05:36:37.965Z,15.40
2017-10-24T05:39:06.232Z,15.60
2017-10-24T05:41:34.474Z,15.50
2017-10-24T05:44:03.499Z,15.60
2017-10-24T05:46:31.887Z,15.60
2017-10-24T05:49:00.176Z,15.80
2017-10-24T05:51:28.438Z,15.60
2017-10-24T05:53:56.986Z,15.40
2017-10-24T05:56:25.995Z,15.50
2017-10-24T05:59:04.669Z,15.50
2017-10-24T06:01:32.923Z,15.60
2017-10-24T06:04:02.097Z,15.50
2017-10-24T06:06:30.355Z,15.40
2017-10-24T06:09:00.268Z,15.70
2017-10-24T06:11:29.325Z,15.70
2017-10-24T06:13:57.578Z,15.70
2017-10-24T06:16:25.840Z,15.90
2017-10-24T06:18:54.143Z,16.00
2017-10-24T06:21:22.391Z,15.80
2017-10-24T06:23:50.640Z,16.00
2017-10-24T06:26:19.680Z,16.00
2017-10-24T06:28:47.929Z,16.20
2017-10-24T06:31:16.218Z,16.20
2017-10-24T06:33:45.065Z,16.30
2017-10-24T06:36:14.116Z,16.30
2017-10-24T06:38:42.370Z,15.80
2017-10-24T06:41:10.635Z,16.00
2017-10-24T06:43:38.926Z,16.10
2017-10-24T06:46:07.299Z,15.90
2017-10-24T06:48:35.553Z,16.20
2017-10-24T06:51:04.674Z,16.30
2017-10-24T06:53:33.425Z,16.50
2017-10-24T06:56:01.702Z,16.10
2017-10-24T06:58:30.000Z,16.20
2017-10-24T07:00:58.308Z,16.40
2017-10-24T07:03:27.367Z,16.20
2017-10-24T07:05:57.288Z,16.50
2017-10-24T07:08:26.327Z,16.30
2017-10-24T07:10:54.594Z,16.20
2017-10-24T07:13:23.009Z,16.20
2017-10-24T07:15:51.249Z,16.40
2017-10-24T07:18:19.504Z,16.20
2017-10-24T07:20:47.811Z,16.40
2017-10-24T07:23:16.056Z,16.50
2017-10-24T07:25:44.396Z,16.40
2017-10-24T07:28:12.671Z,16.40
2017-10-24T07:30:40.950Z,16.30
2017-10-24T07:33:09.219Z,16.50
2017-10-24T07:35:38.309Z,16.30
2017-10-24T07:38:06.646Z,16.10
2017-10-24T07:40:35.272Z,16.20
2017-10-24T07:43:03.566Z,16.10
2017-10-24T07:45:32.648Z,16.10
2017-10-24T07:48:01.723Z,16.20
2017-10-24T07:50:30.038Z,16.20
2017-10-24T07:52:58.346Z,16.40
2017-10-24T07:55:26.634Z,16.30
2017-10-24T07:57:58.540Z,16.50
2017-10-24T08:00:26.811Z,16.60
2017-10-24T08:02:55.132Z,16.50
2017-10-24T08:05:25.141Z,16.50
2017-10-24T08:07:54.376Z,16.30
2017-10-24T08:10:23.624Z,16.50
2017-10-24T08:12:53.733Z,16.30
2017-10-24T08:15:22.995Z,16.40
2017-10-24T08:17:51.479Z,16.30
2017-10-24T08:20:19.804Z,16.10
2017-10-24T08:22:48.057Z,16.30
2017-10-24T08:25:17.140Z,16.50
2017-10-24T08:27:45.613Z,16.50
2017-10-24T08:30:13.874Z,16.30
2017-10-24T08:32:42.179Z,16.40
2017-10-24T08:35:11.307Z,16.20
2017-10-24T08:37:40.327Z,16.40
2017-10-24T08:40:08.611Z,16.40
2017-10-24T08:42:36.872Z,16.50
2017-10-24T08:45:06.030Z,16.50
2017-10-24T08:47:34.395Z,16.40
2017-10-24T08:50:03.000Z,16.30
2017-10-24T08:52:31.280Z,16.50
2017-10-24T08:55:00.363Z,16.50
2017-10-24T08:57:30.190Z,16.60
2017-10-24T08:59:59.749Z,16.50
2017-10-24T09:02:28.138Z,16.60
2017-10-24T09:05:00.704Z,16.80
2017-10-24T09:07:30.872Z,16.80
2017-10-24T09:09:59.127Z,16.90
2017-10-24T09:12:27.423Z,16.70
2017-10-24T09:14:55.702Z,16.80
2017-10-24T09:17:39.591Z,17.00
2017-10-24T09:20:08.725Z,16.80
2017-10-24T09:22:37.000Z,17.00
2017-10-24T09:25:05.321Z,17.20
2017-10-24T09:27:33.808Z,17.00
2017-10-24T09:30:03.805Z,16.90
2017-10-24T09:32:32.782Z,17.30
2017-10-24T09:35:03.933Z,17.20
2017-10-24T09:37:32.404Z,17.00
2017-10-24T09:40:00.770Z,16.90
2017-10-24T09:42:29.850Z,17.00
2017-10-24T09:44:58.150Z,16.90
2017-10-24T09:47:26.454Z,17.20
2017-10-24T09:49:56.723Z,17.20
2017-10-24T09:52:25.036Z,17.10
2017-10-24T09:54:53.297Z,17.20
2017-10-24T09:57:21.596Z,17.40
2017-10-24T09:59:50.657Z,17.20
2017-10-24T10:02:22.163Z,17.60
2017-10-24T10:04:51.728Z,17.40
2017-10-24T10:07:20.051Z,17.20
2017-10-24T10:09:48.348Z,17.50
2017-10-24T10:12:18.340Z,17.50
2017-10-24T10:14:46.664Z,17.80
2017-10-24T10:17:15.814Z,17.60
2017-10-24T10:19:46.813Z,17.60
2017-10-24T10:22:15.171Z,17.60
2017-10-24T10:27:45.435Z,17.80
2017-10-24T10:30:15.044Z,17.70
2017-10-24T10:32:43.363Z,17.90
2017-10-24T10:35:12.437Z,17.80
2017-10-24T10:40:16.933Z,18.00
2017-10-24T10:42:45.277Z,17.90
2017-10-24T10:45:14.277Z,18.00
2017-10-24T10:47:43.736Z,18.00
2017-10-24T10:50:12.502Z,18.20
2017-10-24T10:52:43.623Z,18.20
2017-10-24T10:55:12.698Z,18.00
2017-10-24T10:57:41.008Z,18.10
2017-10-24T11:00:09.287Z,18.20
2017-10-24T11:02:37.658Z,18.40
2017-10-24T11:05:06.801Z,18.30
2017-10-24T11:07:35.613Z,18.40
2017-10-24T11:10:03.908Z,18.50
2017-10-24T11:12:32.239Z,18.60
2017-10-24T11:15:00.589Z,18.70
2017-10-24T11:17:28.922Z,18.70
2017-10-24T11:19:58.176Z,18.50
2017-10-24T11:22:26.473Z,18.70
2017-10-24T11:24:54.885Z,18.50
2017-10-24T11:27:23.373Z,18.70
2017-10-24T11:29:52.433Z,18.70
2017-10-24T11:32:20.978Z,18.60
2017-10-24T11:34:50.612Z,18.60
2017-10-24T11:37:19.753Z,19.00
2017-10-24T11:39:48.526Z,18.70
2017-10-24T11:42:17.980Z,18.40
2017-10-24T11:44:46.243Z,18.40
2017-10-24T11:47:14.753Z,18.70
2017-10-24T11:49:43.065Z,18.50
2017-10-24T11:52:11.451Z,18.50
2017-10-24T11:54:40.281Z,18.40
2017-10-24T11:57:08.628Z,18.50
2017-10-24T11:59:38.796Z,18.60
2017-10-24T12:02:07.223Z,18.50
2017-10-24T12:04:35.544Z,18.70
2017-10-24T12:07:03.853Z,18.40
2017-10-24T12:09:32.125Z,18.60
2017-10-24T12:12:01.350Z,18.60
2017-10-24T12:14:29.671Z,18.50
2017-10-24T12:16:58.811Z,18.50
2017-10-24T12:19:27.101Z,18.40
2017-10-24T12:21:56.991Z,18.60
2017-10-24T12:24:25.441Z,18.90
2017-10-24T12:26:53.829Z,18.70
2017-10-24T12:29:22.159Z,18.70
2017-10-24T12:31:51.668Z,18.50
2017-10-24T12:34:20.915Z,18.40
2017-10-24T12:36:49.518Z,18.60
2017-10-24T12:39:17.863Z,18.70
2017-10-24T12:41:46.328Z,18.70
2017-10-24T12:44:21.164Z,18.60
2017-10-24T12:47:04.833Z,18.40
2017-10-24T12:49:38.825Z,18.60
2017-10-24T12:52:07.179Z,18.50
2017-10-24T12:54:35.744Z,18.50
2017-10-24T12:57:04.037Z,18.30
2017-10-24T12:59:33.287Z,18.60
2017-10-24T13:02:03.241Z,18.50
2017-10-24T13:04:32.540Z,18.50
2017-10-24T13:07:01.621Z,18.70
2017-10-24T13:09:37.045Z,18.70
2017-10-24T13:12:05.392Z,18.40
2017-10-24T13:14:33.713Z,18.40
2017-10-24T13:17:02.111Z,18.50
2017-10-24T13:19:31.167Z,18.30
2017-10-24T13:21:59.602Z,18.40
2017-10-24T13:24:27.931Z,18.50
2017-10-24T13:26:56.445Z,18.30
2017-10-24T13:29:24.689Z,18.10
2017-10-24T13:31:53.052Z,18.50
2017-10-24T13:34:21.582Z,18.50
2017-10-24T13:36:49.928Z,18.30
2017-10-24T13:39:19.279Z,18.70
2017-10-24T13:41:48.668Z,18.30
2017-10-24T13:44:18.674Z,18.40
2017-10-24T13:46:48.045Z,18.40
2017-10-24T13:49:17.293Z,18.40
2017-10-24T13:51:45.713Z,18.20
2017-10-24T13:54:14.107Z,18.50
2017-10-24T13:56:42.634Z,18.20
2017-10-24T13:59:10.887Z,18.50
2017-10-24T14:01:40.018Z,18.60
2017-10-24T14:04:14.048Z,18.40
2017-10-24T14:07:01.212Z,18.70
2017-10-24T14:09:35.658Z,18.60
2017-10-24T14:12:04.328Z,18.20
2017-10-24T14:14:32.616Z,18.20
2017-10-24T14:17:00.949Z,18.20
2017-10-24T14:19:29.317Z,18.30
2017-10-24T14:21:57.602Z,18.60
2017-10-24T14:24:26.050Z,18.40
2017-10-24T14:26:55.343Z,18.30
2017-10-24T14:29:24.373Z,18.30
2017-10-24T14:31:52.720Z,18.30
2017-10-24T14:34:21.042Z,18.20
2017-10-24T14:36:50.161Z,18.30
2017-10-24T14:39:18.450Z,18.50
2017-10-24T14:44:48.195Z,18.40
2017-10-24T14:47:18.242Z,18.50
2017-10-24T14:49:46.647Z,18.40
2017-10-24T14:52:14.959Z,18.30
2017-10-24T14:54:43.376Z,18.10
2017-10-24T14:57:11.663Z,18.30
2017-10-24T14:59:40.011Z,18.20
2017-10-24T15:02:08.328Z,18.40
2017-10-24T15:04:36.639Z,18.60
2017-10-24T15:07:04.914Z,18.50
2017-10-24T15:09:33.250Z,18.50
2017-10-24T15:12:01.821Z,18.30
2017-10-24T15:14:30.284Z,18.40
2017-10-24T15:17:00.532Z,18.30
2017-10-24T15:19:32.686Z,18.10
2017-10-24T15:22:02.637Z,18.30
2017-10-24T15:24:31.128Z,18.20
2017-10-24T15:27:00.786Z,18.10
2017-10-24T15:29:29.330Z,18.10
2017-10-24T15:31:57.920Z,18.30
2017-10-24T15:34:27.079Z,18.30
2017-10-24T15:36:56.205Z,18.30
2017-10-24T15:39:24.687Z,18.30
2017-10-24T15:41:52.962Z,18.20
2017-10-24T15:44:21.308Z,18.20
2017-10-24T15:46:49.971Z,18.20
2017-10-24T15:49:23.603Z,18.10
2017-10-24T15:51:55.802Z,18.50
2017-10-24T15:54:29.496Z,18.30
2017-10-24T15:57:09.659Z,18.40
2017-10-24T15:59:40.824Z,18.20
2017-10-24T16:02:10.181Z,18.20
2017-10-24T16:04:41.558Z,18.20
2017-10-24T16:07:10.340Z,18.30
2017-10-24T16:09:38.660Z,18.20
2017-10-24T16:12:09.095Z,18.30
2017-10-24T16:14:38.095Z,18.10
2017-10-24T16:17:07.130Z,18.40
2017-10-24T16:19:36.186Z,18.70
2017-10-24T16:22:05.114Z,18.50
2017-10-24T16:24:34.316Z,18.60
2017-10-24T16:27:04.016Z,18.40
2017-10-24T16:29:33.122Z,18.60
2017-10-24T16:32:04.846Z,18.20
2017-10-24T16:34:36.933Z,18.30
2017-10-24T16:37:08.611Z,18.20
2017-10-24T16:39:40.925Z,18.40
2017-10-24T16:42:11.924Z,18.20
2017-10-24T16:44:44.223Z,18.20
2017-10-24T16:47:15.238Z,18.10
2017-10-24T16:49:45.954Z,18.50
2017-10-24T16:52:16.362Z,18.20
2017-10-24T16:54:45.975Z,18.20
2017-10-24T16:57:17.632Z,18.20
2017-10-24T16:59:47.182Z,18.10
2017-10-24T17:02:19.068Z,18.20
2017-10-24T17:04:48.694Z,18.00
2017-10-24T17:07:17.320Z,18.00
2017-10-24T17:09:45.639Z,18.40
2017-10-24T17:12:14.278Z,18.20
2017-10-24T17:14:45.522Z,18.20
2017-10-24T17:17:14.654Z,18.50
2017-10-24T17:19:44.010Z,18.00
2017-10-24T17:22:12.701Z,18.40
2017-10-24T17:24:41.559Z,18.20
2017-10-24T17:30:11.061Z,18.40
2017-10-24T17:32:40.509Z,18.40
2017-10-24T17:35:09.305Z,18.20
2017-10-24T17:37:39.438Z,18.20
2017-10-24T17:40:08.831Z,18.10
2017-10-24T17:42:38.989Z,18.20
2017-10-24T17:45:10.066Z,18.40
2017-10-24T17:47:40.989Z,18.30
2017-10-24T17:50:12.433Z,18.50
2017-10-24T17:52:41.472Z,18.50
2017-10-24T17:55:10.779Z,18.30
2017-10-24T17:57:39.710Z,18.20
2017-10-24T18:00:08.154Z,18.10
2017-10-24T18:02:37.036Z,18.20
2017-10-24T18:05:07.141Z,18.30
2017-10-24T18:07:37.270Z,18.10
2017-10-24T18:10:06.376Z,18.30
2017-10-24T18:12:36.091Z,18.50
2017-10-24T18:15:04.883Z,18.40
2017-10-24T18:17:33.461Z,18.50
2017-10-24T18:20:02.346Z,18.60
2017-10-24T18:22:32.240Z,18.60
2017-10-24T18:25:09.428Z,18.50
2017-10-24T18:27:44.431Z,18.40
2017-10-24T18:30:22.421Z,18.40
2017-10-24T18:32:53.860Z,18.60
2017-10-24T18:35:24.572Z,18.40
2017-10-24T18:37:55.291Z,18.50
2017-10-24T18:40:26.365Z,18.20
2017-10-24T18:42:54.806Z,18.30
2017-10-24T18:45:24.924Z,18.60
2017-10-24T18:47:54.835Z,18.40
2017-10-24T18:50:26.571Z,18.10
2017-10-24T18:52:57.883Z,18.40
2017-10-24T18:55:28.947Z,18.50
2017-10-24T18:58:02.244Z,18.40
2017-10-24T19:00:35.728Z,18.50
2017-10-24T19:03:07.557Z,18.40
2017-10-24T19:05:41.984Z,18.50
2017-10-24T19:08:10.558Z,18.30
2017-10-24T19:10:39.393Z,18.40
2017-10-24T19:16:10.889Z,18.40
2017-10-24T19:18:41.671Z,18.20
2017-10-24T19:21:15.715Z,18.20
2017-10-24T19:23:47.040Z,18.40
2017-10-24T19:29:16.493Z,18.40
2017-10-24T19:31:45.052Z,18.30
2017-10-24T19:34:16.583Z,18.30
2017-10-24T19:36:45.995Z,18.20
2017-10-24T19:39:16.548Z,18.10
2017-10-24T19:41:46.501Z,18.30
2017-10-24T19:44:14.944Z,18.50
2017-10-24T19:46:43.929Z,18.50
2017-10-24T19:49:13.185Z,18.40
2017-10-24T19:51:41.911Z,18.40
2017-10-24T19:54:11.200Z,18.50
2017-10-24T19:56:39.686Z,18.30
2017-10-24T19:59:08.088Z,18.20
2017-10-24T20:01:39.092Z,18.40
2017-10-24T20:04:08.203Z,18.40
2017-10-24T20:06:37.703Z,18.40
2017-10-24T20:09:06.916Z,18.40
2017-10-24T20:11:36.998Z,18.70
2017-10-24T20:14:06.134Z,18.30
2017-10-24T20:16:36.074Z,18.40
2017-10-24T20:19:08.094Z,18.60
2017-10-24T20:21:39.318Z,18.80
2017-10-24T20:24:08.861Z,18.50
2017-10-24T20:26:38.226Z,18.40
2017-10-24T20:29:08.503Z,18.50
2017-10-24T20:31:37.715Z,18.40
2017-10-24T20:34:09.578Z,18.50
2017-10-24T20:36:39.746Z,18.60
2017-10-24T20:39:09.232Z,18.50
2017-10-24T20:41:37.914Z,18.60
2017-10-24T20:44:08.623Z,18.50
2017-10-24T20:46:38.678Z,18.50
2017-10-24T20:49:08.126Z,18.40
2017-10-24T20:51:37.689Z,18.50
2017-10-24T20:54:07.851Z,18.70
2017-10-24T20:56:37.513Z,18.60
2017-10-24T20:59:06.542Z,18.50
2017-10-24T21:01:38.875Z,18.70
2017-10-24T21:04:07.804Z,18.70
2017-10-24T21:06:36.723Z,18.80
2017-10-24T21:09:06.079Z,18.70
2017-10-24T21:11:35.977Z,18.60
2017-10-24T21:14:04.597Z,18.50
2017-10-24T21:16:33.480Z,18.40
2017-10-24T21:19:01.928Z,18.60
2017-10-24T21:21:30.311Z,18.70
2017-10-24T21:23:58.649Z,18.70
2017-10-24T21:26:27.767Z,18.50
2017-10-24T21:28:56.883Z,18.50
2017-10-24T21:31:25.319Z,18.50
2017-10-24T21:33:54.117Z,18.60
2017-10-24T21:36:24.632Z,18.60
2017-10-24T21:38:53.963Z,18.60
2017-10-24T21:41:22.991Z,18.60
2017-10-24T21:43:53.070Z,18.70
2017-10-24T21:46:23.094Z,18.60
2017-10-24T21:48:52.794Z,18.70
2017-10-24T21:51:21.157Z,18.40
2017-10-24T21:53:49.542Z,18.80
2017-10-24T21:56:18.453Z,18.50
2017-10-24T21:58:48.456Z,18.60
2017-10-24T22:01:17.503Z,18.60
2017-10-24T22:03:45.815Z,18.50
2017-10-24T22:06:18.196Z,18.30
2017-10-24T22:08:46.618Z,18.90
2017-10-24T22:11:15.155Z,18.70
2017-10-24T22:13:43.441Z,18.60
2017-10-24T22:16:14.364Z,18.40
2017-10-24T22:18:42.688Z,18.50
2017-10-24T22:21:11.786Z,18.60
2017-10-24T22:23:40.055Z,18.90
2017-10-24T22:26:08.364Z,18.80
2017-10-24T22:28:36.688Z,18.60
2017-10-24T22:31:04.969Z,18.60
2017-10-24T22:33:34.370Z,18.60
2017-10-24T22:36:02.829Z,18.70
2017-10-24T22:38:31.164Z,18.60
2017-10-24T22:41:00.438Z,18.50
2017-10-24T22:43:29.520Z,18.60
2017-10-24T22:45:57.784Z,18.30
2017-10-24T22:48:26.029Z,18.60
2017-10-24T22:50:54.339Z,18.50
2017-10-24T22:53:23.370Z,18.30
2017-10-24T22:55:51.629Z,18.50
2017-10-24T22:58:19.940Z,18.60
2017-10-24T23:00:48.196Z,18.70
2017-10-24T23:03:16.554Z,18.60
2017-10-24T23:05:44.872Z,18.60
2017-10-24T23:08:13.171Z,18.50
2017-10-24T23:10:41.490Z,18.60
2017-10-24T23:13:10.551Z,18.40
2017-10-24T23:15:38.796Z,18.60
2017-10-24T23:18:07.051Z,18.60
2017-10-24T23:20:35.337Z,18.70
2017-10-24T23:23:03.622Z,18.40
2017-10-24T23:25:31.909Z,18.40
2017-10-24T23:28:00.203Z,18.40
2017-10-24T23:30:28.460Z,18.70
2017-10-24T23:32:56.728Z,18.40
2017-10-24T23:35:25.051Z,18.50
2017-10-24T23:37:53.336Z,18.80
2017-10-24T23:40:22.417Z,18.60
2017-10-24T23:42:50.732Z,18.80
2017-10-24T23:45:19.459Z,18.70
2017-10-24T23:47:47.843Z,18.60
2017-10-24T23:50:16.121Z,18.80
2017-10-24T23:52:45.879Z,18.80
2017-10-24T23:55:14.187Z,18.60
2017-10-24T23:57:42.516Z,18.90
